createdAt,value
2022-08-20T00:00:41.690Z,95.15
2022-08-20T00:03:16.984Z,94.25
2022-08-20T00:05:47.423Z,95.49
2022-08-20T00:08:14.064Z,95.22
2022-08-20T00:10:43.214Z,95.11
2022-08-20T00:13:15.124Z,95.41
2022-08-20T00:15:45.481Z,96.49
2022-08-20T00:18:12.340Z,98.91
2022-08-20T00:20:43.190Z,99.77
2022-08-20T00:23:10.723Z,100.00
2022-08-20T00:25:38.511Z,98.57
2022-08-20T00:28:06.997Z,96.77
2022-08-20T00:30:35.556Z,97.72
2022-08-20T00:33:15.965Z,97.29
2022-08-20T00:35:45.835Z,97.26
2022-08-20T00:38:13.043Z,97.56
2022-08-20T00:40:46.351Z,96.34
2022-08-20T00:43:33.626Z,95.78
2022-08-20T00:46:02.665Z,96.18
2022-08-20T00:48:32.845Z,95.16
2022-08-20T00:51:18.201Z,95.75
2022-08-20T00:53:45.224Z,96.26
2022-08-20T00:56:12.733Z,96.05
2022-08-20T00:58:42.214Z,96.27
2022-08-20T01:01:09.482Z,96.72
2022-08-20T01:03:36.362Z,95.08
2022-08-20T01:06:03.156Z,97.92
2022-08-20T01:08:29.676Z,97.08
2022-08-20T01:11:09.684Z,98.92
2022-08-20T01:13:39.558Z,98.32
2022-08-20T01:16:13.194Z,98.44
2022-08-20T01:18:40.441Z,97.53
2022-08-20T01:21:08.385Z,97.45
2022-08-20T01:23:43.526Z,99.30
2022-08-20T01:26:23.087Z,97.17
2022-08-20T01:28:54.517Z,96.84
2022-08-20T01:31:24.769Z,98.58
2022-08-20T01:33:54.296Z,97.84
2022-08-20T01:36:24.894Z,96.83
2022-08-20T01:38:54.629Z,96.44
2022-08-20T01:41:48.911Z,94.72
2022-08-20T01:44:18.542Z,94.23
2022-08-20T01:46:47.042Z,94.39
2022-08-20T01:49:34.829Z,94.67
2022-08-20T01:52:07.900Z,94.86
2022-08-20T01:54:35.514Z,94.38
2022-08-20T01:57:05.781Z,93.65
2022-08-20T01:59:32.554Z,94.13
2022-08-20T02:01:59.963Z,94.42
2022-08-20T02:04:27.040Z,94.62
2022-08-20T02:06:57.830Z,93.36
2022-08-20T02:09:29.461Z,93.28
2022-08-20T02:11:57.608Z,93.38
2022-08-20T02:14:24.186Z,93.78
2022-08-20T02:16:55.503Z,94.45
2022-08-20T02:19:40.390Z,95.41
2022-08-20T02:22:16.831Z,94.11
2022-08-20T02:24:43.908Z,94.81
2022-08-20T02:27:10.592Z,94.77
2022-08-20T02:29:37.299Z,94.22
2022-08-20T02:32:26.241Z,95.35
2022-08-20T02:34:52.701Z,94.40
2022-08-20T02:37:19.194Z,93.55
2022-08-20T02:39:46.857Z,93.14
2022-08-20T02:42:13.455Z,92.93
2022-08-20T02:44:40.420Z,93.62
2022-08-20T02:47:07.505Z,93.57
2022-08-20T02:49:35.429Z,93.72
2022-08-20T02:52:02.169Z,94.21
2022-08-20T02:54:29.350Z,94.00
2022-08-20T02:56:56.163Z,93.71
2022-08-20T02:59:22.889Z,94.11
2022-08-20T03:02:00.042Z,94.44
2022-08-20T03:04:29.523Z,95.84
2022-08-20T03:06:56.530Z,95.33
2022-08-20T03:09:23.588Z,96.56
2022-08-20T03:11:50.129Z,96.62
2022-08-20T03:14:16.763Z,96.40
2022-08-20T03:16:43.265Z,96.22
2022-08-20T03:19:09.869Z,98.33
2022-08-20T03:21:36.755Z,98.96
2022-08-20T03:24:03.619Z,99.47
2022-08-20T03:26:30.127Z,99.07
2022-08-20T03:28:56.772Z,99.68
2022-08-20T03:31:23.345Z,100.00
2022-08-20T03:33:53.370Z,99.11
2022-08-20T03:36:28.285Z,99.26
2022-08-20T03:39:00.742Z,98.68
2022-08-20T03:41:28.663Z,99.76
2022-08-20T03:43:55.278Z,98.86
2022-08-20T03:46:23.373Z,100.00
2022-08-20T03:48:56.620Z,100.00
2022-08-20T03:51:27.634Z,100.00
2022-08-20T03:53:54.087Z,99.45
2022-08-20T03:56:20.559Z,100.00
2022-08-20T03:58:47.188Z,100.00
2022-08-20T04:01:44.819Z,100.00
2022-08-20T04:04:00.822Z,100.00
2022-08-20T04:06:29.567Z,100.00
2022-08-20T04:08:56.851Z,100.00
2022-08-20T04:11:24.249Z,100.00
2022-08-20T04:13:51.014Z,99.79
2022-08-20T04:16:18.074Z,100.00
2022-08-20T04:19:01.485Z,100.00
2022-08-20T04:21:33.038Z,99.98
2022-08-20T04:24:01.333Z,99.18
2022-08-20T04:26:28.449Z,99.65
2022-08-20T04:28:55.573Z,100.00
2022-08-20T04:31:25.419Z,100.00
2022-08-20T04:33:52.470Z,100.00
2022-08-20T04:36:19.026Z,99.87
2022-08-20T04:38:47.872Z,100.00
2022-08-20T04:41:22.945Z,99.50
2022-08-20T04:43:52.207Z,99.37
2022-08-20T04:46:19.286Z,99.26
2022-08-20T04:48:48.520Z,99.30
2022-08-20T04:51:18.206Z,99.96
2022-08-20T04:53:51.670Z,99.39
2022-08-20T04:56:23.456Z,99.26
2022-08-20T04:58:52.339Z,99.42
2022-08-20T05:01:19.485Z,99.32
2022-08-20T05:03:47.717Z,98.51
2022-08-20T05:06:16.165Z,98.27
2022-08-20T05:08:43.386Z,98.41
2022-08-20T05:11:33.051Z,98.28
2022-08-20T05:13:57.309Z,98.72
2022-08-20T05:16:24.475Z,98.70
2022-08-20T05:18:52.737Z,98.76
2022-08-20T05:21:20.779Z,97.88
2022-08-20T05:23:47.473Z,97.59
2022-08-20T05:26:15.730Z,97.53
2022-08-20T05:28:54.088Z,97.19
2022-08-20T05:31:31.777Z,97.85
2022-08-20T05:34:01.446Z,97.33
2022-08-20T05:36:27.932Z,97.05
2022-08-20T05:38:54.656Z,97.42
2022-08-20T05:41:27.710Z,96.79
2022-08-20T05:44:02.345Z,96.31
2022-08-20T05:46:31.457Z,96.61
2022-08-20T05:48:59.615Z,96.45
2022-08-20T05:51:27.706Z,95.50
2022-08-20T05:53:54.149Z,96.35
2022-08-20T05:56:26.633Z,95.81
2022-08-20T05:58:53.418Z,96.10
2022-08-20T06:01:20.021Z,95.79
2022-08-20T06:04:05.129Z,95.95
2022-08-20T06:06:45.723Z,96.16
2022-08-20T06:09:31.438Z,95.62
2022-08-20T06:12:04.403Z,95.42
2022-08-20T06:14:31.284Z,96.35
2022-08-20T06:17:15.376Z,95.74
2022-08-20T06:19:44.518Z,95.38
2022-08-20T06:22:19.666Z,95.33
2022-08-20T06:24:51.328Z,94.95
2022-08-20T06:27:18.361Z,94.96
2022-08-20T06:29:45.389Z,95.36
2022-08-20T06:32:11.902Z,94.89
2022-08-20T06:34:38.414Z,94.46
2022-08-20T06:37:31.527Z,94.35
2022-08-20T06:40:07.068Z,92.43
2022-08-20T06:42:33.824Z,93.18
2022-08-20T06:45:03.170Z,92.77
2022-08-20T06:47:30.369Z,92.35
2022-08-20T06:49:57.295Z,91.97
2022-08-20T06:52:51.715Z,91.31
2022-08-20T06:55:11.112Z,92.85
2022-08-20T06:57:38.425Z,92.45
2022-08-20T07:00:12.200Z,91.58
2022-08-20T07:02:38.739Z,91.83
2022-08-20T07:05:06.292Z,92.22
2022-08-20T07:07:32.874Z,92.84
2022-08-20T07:10:05.623Z,91.77
2022-08-20T07:12:32.198Z,91.91
2022-08-20T07:14:58.719Z,91.26
2022-08-20T07:17:25.319Z,91.47
2022-08-20T07:19:51.746Z,91.31
2022-08-20T07:22:18.226Z,91.58
2022-08-20T07:24:48.912Z,91.54
2022-08-20T07:27:20.604Z,90.56
2022-08-20T07:30:06.364Z,90.59
2022-08-20T07:32:39.339Z,90.44
2022-08-20T07:35:09.498Z,89.81
2022-08-20T07:37:41.996Z,89.99
2022-08-20T07:40:12.772Z,88.96
2022-08-20T07:42:40.445Z,89.07
2022-08-20T07:45:10.717Z,89.46
2022-08-20T07:47:39.282Z,89.46
2022-08-20T07:50:07.000Z,88.50
2022-08-20T07:52:35.287Z,88.58
2022-08-20T07:55:11.071Z,88.81
2022-08-20T07:57:38.498Z,88.63
2022-08-20T08:00:08.835Z,88.15
2022-08-20T08:02:36.768Z,87.95
2022-08-20T08:05:05.314Z,87.62
2022-08-20T08:07:33.535Z,87.49
2022-08-20T08:10:03.884Z,87.22
2022-08-20T08:12:38.374Z,86.67
2022-08-20T08:15:09.109Z,87.22
2022-08-20T08:17:36.465Z,87.35
2022-08-20T08:20:06.413Z,86.89
2022-08-20T08:22:33.159Z,87.29
2022-08-20T08:25:02.358Z,87.25
2022-08-20T08:27:33.400Z,87.00
2022-08-20T08:30:01.045Z,87.08
2022-08-20T08:32:28.512Z,86.90
2022-08-20T08:34:55.011Z,86.78
2022-08-20T08:37:21.490Z,86.74
2022-08-20T08:39:48.211Z,86.22
2022-08-20T08:42:33.638Z,86.29
2022-08-20T08:45:00.684Z,86.17
2022-08-20T08:47:35.866Z,85.55
2022-08-20T08:50:05.585Z,85.67
2022-08-20T08:52:35.110Z,85.81
2022-08-20T08:55:10.383Z,85.75
2022-08-20T08:57:36.870Z,85.47
2022-08-20T09:00:13.243Z,84.59
2022-08-20T09:02:42.483Z,84.64
2022-08-20T09:05:16.773Z,84.80
2022-08-20T09:07:48.177Z,84.99
2022-08-20T09:10:14.612Z,84.83
2022-08-20T09:12:45.708Z,84.92
2022-08-20T09:15:14.040Z,85.50
2022-08-20T09:17:41.421Z,84.56
2022-08-20T09:20:09.468Z,82.05
2022-08-20T09:22:35.946Z,82.48
2022-08-20T09:25:03.581Z,82.34
2022-08-20T09:27:39.332Z,82.64
2022-08-20T09:30:09.236Z,81.47
2022-08-20T09:32:35.773Z,81.64
2022-08-20T09:35:04.030Z,82.31
2022-08-20T09:37:37.454Z,81.85
2022-08-20T09:40:30.618Z,80.90
2022-08-20T09:42:59.426Z,80.94
2022-08-20T09:45:26.120Z,80.86
2022-08-20T09:47:57.010Z,80.70
2022-08-20T09:50:26.364Z,80.28
2022-08-20T09:52:54.948Z,79.57
2022-08-20T09:55:36.868Z,80.16
2022-08-20T09:58:09.458Z,80.32
2022-08-20T10:00:36.235Z,80.63
2022-08-20T10:03:03.419Z,80.56
2022-08-20T10:05:30.290Z,78.92
2022-08-20T10:07:56.863Z,78.85
2022-08-20T10:10:23.479Z,78.81
2022-08-20T10:12:54.630Z,78.45
2022-08-20T10:15:21.774Z,78.73
2022-08-20T10:17:48.369Z,78.44
2022-08-20T10:20:16.081Z,78.08
2022-08-20T10:22:42.687Z,78.17
2022-08-20T10:25:09.894Z,78.09
2022-08-20T10:27:37.226Z,78.59
2022-08-20T10:30:06.067Z,78.29
2022-08-20T10:32:32.555Z,77.55
2022-08-20T10:34:59.188Z,77.62
2022-08-20T10:37:26.366Z,77.33
2022-08-20T10:39:53.381Z,77.53
2022-08-20T10:42:20.265Z,77.81
2022-08-20T10:44:46.908Z,77.33
2022-08-20T10:47:15.694Z,77.71
2022-08-20T10:49:42.211Z,74.78
2022-08-20T10:52:08.710Z,75.04
2022-08-20T10:54:35.173Z,75.35
2022-08-20T10:57:04.864Z,75.11
2022-08-20T10:59:31.434Z,74.81
2022-08-20T11:01:57.973Z,74.55
2022-08-20T11:04:24.588Z,74.55
2022-08-20T11:06:51.069Z,73.38
2022-08-20T11:09:17.573Z,72.88
2022-08-20T11:11:44.080Z,73.01
2022-08-20T11:14:10.596Z,72.04
2022-08-20T11:16:37.498Z,71.07
2022-08-20T11:19:04.024Z,71.39
2022-08-20T11:21:31.062Z,70.11
2022-08-20T11:24:02.227Z,67.98
2022-08-20T11:26:29.327Z,68.99
2022-08-20T11:28:55.819Z,69.07
2022-08-20T11:31:22.293Z,67.52
2022-08-20T11:33:48.840Z,67.16
2022-08-20T11:36:15.292Z,66.48
2022-08-20T11:38:41.841Z,66.64
2022-08-20T11:41:08.368Z,64.98
2022-08-20T11:43:34.824Z,63.73
2022-08-20T11:46:01.352Z,64.05
2022-08-20T11:48:27.829Z,65.65
2022-08-20T11:50:54.404Z,63.22
2022-08-20T11:53:21.565Z,63.67
2022-08-20T11:55:49.141Z,60.14
2022-08-20T11:58:15.981Z,59.88
2022-08-20T12:00:42.433Z,58.71
2022-08-20T12:03:09.974Z,57.15
2022-08-20T12:05:42.819Z,58.38
2022-08-20T12:08:10.510Z,57.98
2022-08-20T12:10:54.214Z,56.34
2022-08-20T12:13:20.677Z,54.61
2022-08-20T12:15:54.348Z,58.10
2022-08-20T12:18:21.700Z,56.73
2022-08-20T12:20:53.551Z,57.57
2022-08-20T12:23:20.222Z,56.05
2022-08-20T12:25:46.682Z,55.54
2022-08-20T12:28:13.765Z,55.85
2022-08-20T12:30:40.266Z,55.98
2022-08-20T12:33:06.989Z,55.50
2022-08-20T12:35:33.911Z,54.08
2022-08-20T12:38:06.858Z,54.54
2022-08-20T12:40:34.254Z,52.41
2022-08-20T12:43:02.668Z,52.58
2022-08-20T12:45:30.205Z,51.88
2022-08-20T12:48:02.397Z,52.93
2022-08-20T12:50:31.584Z,52.31
2022-08-20T12:52:59.158Z,49.22
2022-08-20T12:55:26.007Z,50.36
2022-08-20T12:57:56.633Z,49.78
2022-08-20T13:00:29.398Z,49.64
2022-08-20T13:02:58.562Z,50.04
2022-08-20T13:05:26.542Z,49.89
2022-08-20T13:07:53.739Z,49.54
2022-08-20T13:10:24.217Z,48.61
2022-08-20T13:12:51.484Z,48.49
2022-08-20T13:15:18.639Z,48.10
2022-08-20T13:17:45.096Z,48.25
2022-08-20T13:20:15.253Z,49.69
2022-08-20T13:22:42.488Z,47.97
2022-08-20T13:25:10.473Z,46.41
2022-08-20T13:27:40.562Z,45.84
2022-08-20T13:30:09.387Z,45.39
2022-08-20T13:32:35.994Z,45.81
2022-08-20T13:35:02.653Z,45.18
2022-08-20T13:37:30.194Z,46.06
2022-08-20T13:39:58.720Z,45.31
2022-08-20T13:42:26.862Z,46.23
2022-08-20T13:44:54.137Z,44.71
2022-08-20T13:47:25.090Z,45.06
2022-08-20T13:50:13.841Z,45.82
2022-08-20T13:52:42.554Z,45.27
2022-08-20T13:55:12.918Z,45.47
2022-08-20T13:57:40.112Z,44.28
2022-08-20T14:00:12.384Z,45.61
2022-08-20T14:02:40.162Z,43.67
2022-08-20T14:05:07.803Z,43.41
2022-08-20T14:07:34.693Z,41.66
2022-08-20T14:10:13.745Z,41.49
2022-08-20T14:12:40.620Z,41.49
2022-08-20T14:15:11.690Z,41.65
2022-08-20T14:17:41.772Z,40.00
2022-08-20T14:20:11.987Z,39.32
2022-08-20T14:22:39.194Z,39.76
2022-08-20T14:25:08.032Z,39.69
2022-08-20T14:27:35.037Z,38.51
2022-08-20T14:30:03.207Z,36.83
2022-08-20T14:32:29.796Z,36.84
2022-08-20T14:34:59.124Z,38.04
2022-08-20T14:37:34.846Z,37.96
2022-08-20T14:40:03.008Z,37.19
2022-08-20T14:42:30.529Z,37.84
2022-08-20T14:44:58.926Z,37.52
2022-08-20T14:47:28.826Z,38.87
2022-08-20T14:49:57.877Z,36.73
2022-08-20T14:52:28.190Z,36.75
2022-08-20T14:54:55.230Z,36.22
2022-08-20T14:57:23.005Z,37.26
2022-08-20T14:59:52.665Z,38.27
2022-08-20T15:02:19.286Z,38.38
2022-08-20T15:04:52.235Z,36.79
2022-08-20T15:07:27.584Z,37.40
2022-08-20T15:09:55.329Z,37.72
2022-08-20T15:12:22.586Z,37.63
2022-08-20T15:14:49.193Z,36.95
2022-08-20T15:17:27.898Z,37.37
2022-08-20T15:19:55.077Z,38.83
2022-08-20T15:22:22.769Z,38.97
2022-08-20T15:24:49.749Z,38.15
2022-08-20T15:27:25.300Z,39.07
2022-08-20T15:29:53.113Z,39.33
2022-08-20T15:32:20.601Z,38.51
2022-08-20T15:34:47.640Z,38.82
2022-08-20T15:37:23.736Z,39.82
2022-08-20T15:39:51.509Z,39.29
2022-08-20T15:42:21.090Z,39.07
2022-08-20T15:44:47.724Z,38.23
2022-08-20T15:47:21.508Z,39.40
2022-08-20T15:49:50.505Z,38.20
2022-08-20T15:52:17.910Z,38.37
2022-08-20T15:54:45.611Z,36.94
2022-08-20T15:57:25.076Z,37.41
2022-08-20T16:00:10.075Z,37.85
2022-08-20T16:02:51.952Z,37.31
2022-08-20T16:05:36.894Z,37.53
2022-08-20T16:08:09.392Z,37.34
2022-08-20T16:10:41.770Z,37.45
2022-08-20T16:13:19.522Z,36.82
2022-08-20T16:15:49.620Z,36.76
2022-08-20T16:18:30.072Z,36.63
2022-08-20T16:20:58.820Z,36.79
2022-08-20T16:23:32.814Z,35.81
2022-08-20T16:26:14.774Z,36.99
2022-08-20T16:28:57.454Z,36.57
2022-08-20T16:31:28.865Z,36.81
2022-08-20T16:34:32.865Z,37.37
2022-08-20T16:37:17.730Z,37.81
2022-08-20T16:40:15.301Z,37.67
2022-08-20T16:42:46.429Z,38.24
2022-08-20T16:45:26.688Z,38.54
2022-08-20T16:47:57.394Z,37.27
2022-08-20T16:50:38.269Z,38.22
2022-08-20T16:53:05.314Z,38.35
2022-08-20T16:55:32.473Z,38.29
2022-08-20T16:57:59.189Z,38.82
2022-08-20T17:00:35.278Z,38.13
2022-08-20T17:03:19.069Z,38.17
2022-08-20T17:06:00.437Z,38.12
2022-08-20T17:08:34.345Z,38.71
2022-08-20T17:11:14.472Z,38.96
2022-08-20T17:13:44.351Z,39.79
2022-08-20T17:16:13.996Z,39.02
2022-08-20T17:18:49.617Z,39.63
2022-08-20T17:21:28.559Z,39.94
2022-08-20T17:24:01.040Z,39.62
2022-08-20T17:26:42.429Z,39.87
2022-08-20T17:29:17.408Z,39.31
2022-08-20T17:32:09.981Z,40.35
2022-08-20T17:34:48.760Z,39.88
2022-08-20T17:37:29.369Z,39.72
2022-08-20T17:40:15.060Z,40.23
2022-08-20T17:42:48.669Z,39.47
2022-08-20T17:45:27.384Z,39.54
2022-08-20T17:47:58.143Z,40.88
2022-08-20T17:50:36.929Z,40.77
2022-08-20T17:53:11.443Z,41.08
2022-08-20T17:55:40.082Z,40.22
2022-08-20T17:58:12.710Z,40.70
2022-08-20T18:00:39.670Z,39.92
2022-08-20T18:03:27.007Z,40.62
2022-08-20T18:05:58.117Z,40.30
2022-08-20T18:08:49.016Z,39.97
2022-08-20T18:11:27.065Z,40.64
2022-08-20T18:13:59.648Z,40.72
2022-08-20T18:16:30.498Z,40.64
2022-08-20T18:19:08.511Z,41.03
2022-08-20T18:22:06.425Z,41.26
2022-08-20T18:24:54.078Z,41.44
2022-08-20T18:27:25.356Z,40.80
2022-08-20T18:29:59.436Z,40.91
2022-08-20T18:32:37.992Z,41.88
2022-08-20T18:35:31.091Z,41.66
2022-08-20T18:37:57.767Z,42.25
2022-08-20T18:40:31.100Z,42.90
2022-08-20T18:43:10.846Z,42.04
2022-08-20T18:45:37.406Z,42.88
2022-08-20T18:48:05.373Z,43.86
2022-08-20T18:50:40.927Z,43.18
2022-08-20T18:53:17.343Z,43.81
2022-08-20T18:55:47.098Z,44.51
2022-08-20T18:58:35.386Z,44.09
2022-08-20T19:01:04.954Z,45.89
2022-08-20T19:03:41.509Z,45.50
2022-08-20T19:06:22.020Z,46.51
2022-08-20T19:08:53.644Z,46.48
2022-08-20T19:11:57.138Z,46.82
2022-08-20T19:14:44.274Z,46.83
2022-08-20T19:17:18.026Z,46.76
2022-08-20T19:19:44.458Z,46.79
2022-08-20T19:22:21.142Z,47.85
2022-08-20T19:24:56.644Z,47.84
2022-08-20T19:27:23.864Z,48.34
2022-08-20T19:29:56.931Z,48.05
2022-08-20T19:32:29.433Z,47.98
2022-08-20T19:35:02.139Z,48.72
2022-08-20T19:37:39.867Z,48.40
2022-08-20T19:40:29.414Z,49.19
2022-08-20T19:42:59.360Z,49.57
2022-08-20T19:45:39.983Z,49.19
2022-08-20T19:48:06.442Z,48.95
2022-08-20T19:50:57.724Z,49.32
2022-08-20T19:53:31.063Z,50.29
2022-08-20T19:56:04.406Z,51.11
2022-08-20T19:58:32.650Z,50.24
2022-08-20T20:01:01.777Z,50.56
2022-08-20T20:03:35.676Z,50.92
2022-08-20T20:06:18.179Z,52.23
2022-08-20T20:09:02.117Z,53.20
2022-08-20T20:11:34.727Z,53.48
2022-08-20T20:14:13.032Z,52.48
2022-08-20T20:16:41.148Z,52.74
2022-08-20T20:19:28.693Z,52.35
2022-08-20T20:22:20.108Z,52.73
2022-08-20T20:24:57.638Z,52.83
2022-08-20T20:27:29.023Z,52.41
2022-08-20T20:30:02.428Z,52.81
2022-08-20T20:32:30.355Z,52.68
2022-08-20T20:34:59.262Z,52.94
2022-08-20T20:37:50.087Z,53.31
2022-08-20T20:40:30.892Z,53.06
2022-08-20T20:43:07.933Z,53.43
2022-08-20T20:45:38.423Z,53.65
2022-08-20T20:48:13.929Z,54.27
2022-08-20T20:50:40.548Z,54.12
2022-08-20T20:53:07.344Z,54.10
2022-08-20T20:55:37.338Z,54.55
2022-08-20T20:58:04.427Z,54.15
2022-08-20T21:00:34.017Z,55.10
2022-08-20T21:03:02.732Z,54.76
2022-08-20T21:05:30.544Z,55.91
2022-08-20T21:08:00.045Z,56.66
2022-08-20T21:10:32.068Z,56.24
2022-08-20T21:12:59.765Z,56.01
2022-08-20T21:15:26.915Z,56.25
2022-08-20T21:17:53.797Z,56.62
2022-08-20T21:20:22.521Z,56.42
2022-08-20T21:22:49.391Z,56.93
2022-08-20T21:25:16.147Z,56.66
2022-08-20T21:27:47.061Z,57.19
2022-08-20T21:30:14.763Z,56.51
2022-08-20T21:32:41.353Z,56.75
2022-08-20T21:35:08.711Z,57.45
2022-08-20T21:37:35.701Z,57.68
2022-08-20T21:40:03.485Z,58.39
2022-08-20T21:42:30.276Z,58.62
2022-08-20T21:44:58.002Z,57.50
2022-08-20T21:47:25.167Z,56.96
2022-08-20T21:49:52.194Z,58.43
2022-08-20T21:52:18.987Z,58.38
2022-08-20T21:54:45.423Z,59.26
2022-08-20T21:57:20.423Z,58.08
2022-08-20T21:59:47.467Z,57.56
2022-08-20T22:02:15.408Z,58.02
2022-08-20T22:04:41.903Z,57.26
2022-08-20T22:07:08.680Z,58.13
2022-08-20T22:09:36.389Z,58.29
2022-08-20T22:12:03.770Z,58.95
2022-08-20T22:14:30.784Z,58.87
2022-08-20T22:16:58.031Z,58.26
2022-08-20T22:19:24.952Z,58.33
2022-08-20T22:21:53.333Z,58.43
2022-08-20T22:24:19.862Z,58.13
2022-08-20T22:26:46.344Z,58.52
2022-08-20T22:29:12.937Z,59.32
2022-08-20T22:31:42.645Z,58.58
2022-08-20T22:34:11.298Z,58.09
2022-08-20T22:36:38.365Z,58.04
2022-08-20T22:39:05.415Z,59.54
2022-08-20T22:41:32.221Z,58.49
2022-08-20T22:43:58.761Z,59.74
2022-08-20T22:46:28.541Z,59.79
2022-08-20T22:48:56.224Z,60.08
2022-08-20T22:52:06.455Z,60.27
2022-08-20T22:54:34.228Z,60.97
2022-08-20T22:57:00.958Z,62.55
2022-08-20T22:59:27.576Z,61.74
2022-08-20T23:01:54.472Z,60.91
2022-08-20T23:04:34.171Z,60.60
2022-08-20T23:07:02.626Z,60.69
2022-08-20T23:09:30.257Z,60.93
2022-08-20T23:11:56.969Z,60.87
2022-08-20T23:14:23.399Z,61.20
2022-08-20T23:17:13.584Z,61.95
2022-08-20T23:19:41.364Z,61.52
2022-08-20T23:22:08.468Z,62.16
2022-08-20T23:24:35.962Z,62.74
2022-08-20T23:27:04.793Z,62.67
2022-08-20T23:29:31.392Z,61.33
2022-08-20T23:31:58.353Z,61.44
2022-08-20T23:34:25.959Z,61.73
2022-08-20T23:36:53.907Z,61.49
2022-08-20T23:39:20.637Z,61.25
2022-08-20T23:41:48.117Z,61.72
2022-08-20T23:44:26.521Z,61.18
2022-08-20T23:47:01.155Z,62.31
2022-08-20T23:49:29.926Z,62.83
2022-08-20T23:51:57.872Z,62.87
2022-08-20T23:54:24.326Z,62.17
2022-08-20T23:56:50.835Z,61.47
2022-08-20T23:59:17.630Z,61.78
